Главная страница
METAR-TAF:

METAR-TAF

Аэропорты :

Ringkøbing-Skjern, Дания

широта: 56-00N, долгота: 008-21E, высота над уровнем моря: 5 м

Текущие метеонаблюдения

Эта сводка был подготовлена 24 минут назад, в 15:20 UTC
Ветер 11 Узел от западный, изменяющийся между западный-юго-западный и северо-западный
Температура 15°C
Влажность 88%
Давление 1010 hPa
Видимость 10 км и более

METAR: EKVJ 221520Z AUTO 28011KT 250V310 9999 BKN009/// BKN029/// BKN047/// 15/13 Q1010 TEST

Время: 17:44 (15:44 UTC)


TAF: отсутствует

Метеонаблюдения и прогнозы для более 4000 аэропортов (сводки METAR и TAF).

Имеющиеся станции представлены на карте желтыми и красными точками.

Чтобы увидеть название станции, наведите на нее мышь.

Затем щелкните, чтобы увидеть метеонаблюдения и метеопрогнозы.

Управление картой: чтобы увеличить масштаб, щелкните зеленые кнопки с черным крестиком; чтобы уменьшить масштаб, щелкните зеленую кнопку с тире; для просмотра соседних карт щелкайте зеленые стрелки.


METAR-TAF: